Etusivu
METAR-TAF:

METAR-TAF

Lentoasemat :

Seinäjoki-Ilmajoki, Suomi

Seinäjoen lentoasema

Leveyspiiri: 62-41-37N, Pituuspiiri: 022-49-55E, korkeus merenpinnasta: 91 m

Tämänhetkinen sää

Tämä raportti tehtiin 19 minuuttia sitten, kello 05.20 UTC
Tuuli 5 kn koillisesta, vaihdellen pohjoisen ja idän välillä
Lämpötila 6°C
Kosteus 93%
Ilmanpaine 1017 hPa
Näkyvyys 10 km tai enemmän
Muutamia pilviä 600 ft:n korkeudessa
Hajanaisia pilviä 800 ft:n korkeudessa
Hajonneita pilviä 1100 ft:n korkeudessa
Pilvistä 1400 ft:n korkeudessa

METAR: EFSI 200520Z AUTO 04005KT 010V090 9999 FEW006 SCT008 BKN011 OVC014 06/05 Q1017

Aika: 08:39 (05:39 UTC)


TAF: puuttuu

Säähavainnot ja -ennusteet yli 4000 lentoasemalta (METAR- ja TAF-raportit).

Käytössä olevat sääasemat on merkitty karttaan keltaisilla ja punaisilla pisteillä.

Aseta hiiri pisteen päälle nähdäksesi sääaseman nimen.

Klikkaa sitten nähdäksesi säähavainnot ja -ennusteet.

Kartan vaihtaminen: klikkaa mustalla rastilla varustettuja vihreitä pisteitä, niin voit zoomata sisään; viivalla varustettua vihreää pistettä, niin voit zoomata ulos tai vihreitä nuolia, niin pääset viereisille kartoille.


METAR-TAF: